DW1520 Weather Reports


Display with metric or nautical units.
time (UTC)temp
F
wind
direction
speed
MPH
gust
MPH
rain 1hr
in
rain 24hr
in
rain mn
in
humidity
%
barometer
mb
20240617070506 75 159 1.0 3.0 0.00 0.27 0.00 88 1003.8
20240617070005 76 159 2.0 3.0 0.00 0.27 0.00 88 1003.9
20240617065506 76 159 2.0 5.0 0.00 0.27 0.00 88 1003.8
20240617065006 76 159 3.0 6.0 0.00 0.27 0.00 88 1003.8
20240617064006 76 162 2.0 5.0 0.00 0.27 0.00 88 1003.7
20240617063506 76 161 3.0 5.0 0.00 0.27 0.00 88 1003.8
20240617063006 76 140 2.0 3.0 0.00 0.27 0.00 88 1003.7
20240617062506 76 138 2.0 5.0 0.00 0.27 0.00 88 1003.7
20240617062006 75 157 3.0 6.0 0.00 0.27 0.00 89 1003.8
20240617061505 75 170 3.0 6.0 0.00 0.27 0.00 89 1003.7
20240617061006 75 166 2.0 5.0 0.00 0.27 0.00 89 1003.7
20240617060507 75 165 2.0 3.0 0.00 0.27 0.00 89 1003.8
20240617060006 75 165 2.0 3.0 0.00 0.27 0.00 88 1003.8
20240617055506 75 165 1.0 2.0 0.00 0.27 0.00 88 1003.8
20240617055006 76 165 0.0 0.0 0.00 0.27 0.00 88 1003.8
20240617054506 76 165 0.0 0.0 0.00 0.28 0.00 88 1003.8
20240617054007 76 165 0.0 0.0 0.00 0.28 0.00 88 1003.8
20240617053506 76 165 0.0 0.0 0.00 0.28 0.00 88 1003.8
20240617053006 76 165 0.0 0.0 0.00 0.28 0.00 88 1003.9
20240617052506 76 165 0.0 0.0 0.00 0.29 0.00 88 1003.9
20240617052006 76 165 0.0 0.0 0.00 0.29 0.00 88 1004.0
20240617051506 76 165 0.0 0.0 0.00 0.30 0.00 88 1004.2
20240617051006 76 165 0.0 0.0 0.00 0.30 0.00 88 1004.1
20240617050506 76 165 0.0 0.0 0.00 0.30 0.00 88 1004.2
20240617050006 76 165 0.0 0.0 0.00 0.30 0.00 88 1004.2
20240617045506 76 165 0.0 0.0 0.00 0.30 0.30 88 1004.1
20240617044505 76 165 0.0 0.0 0.00 0.30 0.30 88 1004.1
20240617043507 76 165 0.0 0.0 0.00 0.31 0.30 87 1004.0
20240617042006 77 165 0.0 0.0 0.00 0.38 0.30 86 1003.7
20240617041506 77 165 0.0 0.0 0.00 0.38 0.30 85 1003.7
20240617041006 77 165 0.0 0.0 0.00 0.43 0.30 85 1003.8
20240617040505 77 165 0.0 0.0 0.00 0.53 0.30 85 1003.8
20240617040005 78 165 0.0 0.0 0.00 0.59 0.30 85 1003.8
20240617035506 78 165 0.0 0.0 0.00 0.61 0.30 85 1003.8
20240617035006 78 165 0.0 0.0 0.00 0.62 0.30 84 1003.8
20240617034006 78 165 0.0 0.0 0.00 0.62 0.30 84 1003.7
20240617033506 78 165 0.0 0.0 0.00 0.63 0.30 84 1003.7
20240617032506 78 165 0.0 1.0 0.00 0.65 0.30 83 1003.8
20240617031505 79 165 0.0 0.0 0.00 0.66 0.30 83 1003.7
20240617030005 79 165 0.0 0.0 0.00 0.70 0.30 82 1003.4
20240617025505 80 165 0.0 2.0 0.00 0.70 0.30 81 1003.3
20240617025006 80 165 0.0 3.0 0.00 0.70 0.30 81 1003.2
20240617024506 80 165 0.0 2.0 0.00 0.70 0.30 80 1003.1
20240617024006 80 165 0.0 0.0 0.00 0.70 0.30 80 1003.1
20240617023506 80 165 0.0 0.0 0.00 0.70 0.30 79 1003.0
20240617023006 81 166 0.0 2.0 0.00 0.70 0.30 79 1002.9
20240617021506 81 165 3.0 6.0 0.00 0.71 0.30 77 1002.4
20240617021006 81 165 3.0 6.0 0.00 0.71 0.30 77 1002.3
20240617020506 81 172 3.0 7.0 0.00 0.72 0.30 76 1002.3
20240617020006 81 167 4.0 7.0 0.00 0.72 0.30 76 1002.1
20240617014006 82 153 3.0 6.0 0.00 0.75 0.30 76 1001.9
20240617013506 82 162 3.0 6.0 0.00 0.75 0.30 76 1001.9
20240617012505 82 163 3.0 6.0 0.00 0.76 0.30 75 1002.0
20240617012007 83 186 3.0 9.0 0.00 0.77 0.30 74 1002.0
20240617011505 83 173 2.0 6.0 0.00 0.78 0.30 75 1002.0
20240617011006 83 171 5.0 7.0 0.00 0.78 0.30 74 1002.1
20240617010506 83 161 5.0 8.0 0.00 0.79 0.30 74 1002.0
20240617010006 83 166 4.0 6.0 0.00 0.79 0.30 74 1001.8
20240617005006 83 158 3.0 8.0 0.00 0.79 0.30 74 1001.6
20240617004505 83 166 5.0 8.0 0.00 0.79 0.30 73 1001.6
20240617004006 84 144 3.0 5.0 0.00 0.79 0.30 73 1001.5
20240617003006 84 169 3.0 7.0 0.00 0.79 0.30 73 1001.4
20240617002505 84 156 4.0 10.0 0.00 0.79 0.30 72 1001.4
20240617002006 84 159 4.0 8.0 0.00 0.79 0.30 72 1001.3
20240617001005 84 166 5.0 9.0 0.00 0.79 0.30 72 1001.2
20240617000506 84 164 5.0 12.0 0.00 0.79 0.30 72 1001.1
20240617000006 84 164 3.0 9.0 0.00 0.79 0.30 73 1001.1
20240616235506 84 163 4.0 9.0 0.00 0.79 0.30 72 1001.1
20240616235006 84 168 3.0 9.0 0.00 0.79 0.30 73 1001.1
20240616234506 84 169 3.0 9.0 0.00 0.79 0.30 73 1001.2
20240616233505 85 179 5.0 16.0 0.00 0.79 0.30 72 1001.1
20240616233006 85 170 4.0 7.0 0.00 0.79 0.30 72 1001.1
20240616232506 85 161 5.0 10.0 0.00 0.79 0.30 71 1001.0
20240616232006 85 179 6.0 12.0 0.00 0.79 0.30 71 1001.0
20240616231506 85 164 5.0 9.0 0.00 0.79 0.30 71 1000.8
20240616230506 85 168 6.0 12.0 0.00 0.79 0.30 71 1000.8
20240616230005 85 175 6.0 12.0 0.00 0.79 0.30 71 1000.8
20240616225506 85 178 5.0 8.0 0.00 0.80 0.30 71 1000.8
20240616225006 85 175 3.0 12.0 0.00 0.80 0.30 71 1000.8
20240616224506 85 173 5.0 12.0 0.00 0.80 0.30 70 1000.8
20240616224005 85 171 6.0 12.0 0.00 0.80 0.30 71 1000.7
20240616223505 85 173 6.0 12.0 0.00 0.80 0.30 71 1000.7
20240616223006 85 170 5.0 13.0 0.00 0.80 0.30 72 1000.7
20240616222506 85 168 5.0 13.0 0.00 0.80 0.30 71 1000.7
20240616222005 85 176 6.0 10.0 0.00 0.80 0.30 71 1000.6
20240616220506 85 165 6.0 12.0 0.00 0.80 0.30 70 1000.7
20240616220005 85 156 5.0 12.0 0.00 0.81 0.30 70 1000.8
20240616215506 85 170 5.0 10.0 0.00 0.81 0.30 70 1000.7
20240616215006 85 175 6.0 12.0 0.00 0.81 0.30 70 1000.8
20240616214506 85 187 5.0 12.0 0.00 0.81 0.30 70 1000.9
20240616214005 85 168 6.0 14.0 0.00 0.81 0.30 69 1000.8
20240616213005 85 178 6.0 14.0 0.00 0.81 0.30 70 1000.8
20240616212506 85 182 7.0 14.0 0.00 0.81 0.30 68 1000.8
20240616212005 86 172 7.0 15.0 0.00 0.82 0.30 69 1000.8
20240616211506 86 175 5.0 10.0 0.00 0.82 0.30 70 1000.9
20240616211006 86 175 5.0 15.0 0.00 0.82 0.30 71 1001.1
20240616210506 85 174 9.0 18.0 0.00 0.82 0.30 67 1001.0
20240616210005 85 177 6.0 15.0 0.00 0.82 0.30 68 1001.0
20240616205506 86 180 7.0 15.0 0.00 0.82 0.30 67 1000.9
20240616205006 86 166 6.0 13.0 0.00 0.82 0.30 68 1001.0
20240616204506 85 182 6.0 12.0 0.00 0.82 0.30 68 1001.0
20240616203505 85 174 8.0 20.0 0.00 0.83 0.30 66 1000.9
20240616203007 86 168 8.0 15.0 0.00 0.84 0.30 66 1001.0
20240616202505 86 176 7.0 16.0 0.00 0.85 0.30 68 1001.0
20240616201506 86 167 7.0 14.0 0.00 0.85 0.30 67 1001.2
20240616201006 85 174 4.0 12.0 0.00 0.85 0.30 70 1001.2
20240616200006 85 179 9.0 18.0 0.00 0.85 0.30 68 1001.2
20240616195506 85 174 6.0 14.0 0.00 0.85 0.30 70 1001.2
20240616195006 85 176 9.0 18.0 0.00 0.85 0.30 66 1001.2
20240616194505 85 160 8.0 17.0 0.00 0.85 0.30 69 1001.2
20240616194006 85 179 7.0 15.0 0.00 0.85 0.30 68 1001.1
20240616193505 85 173 8.0 16.0 0.00 0.85 0.30 69 1001.1
20240616193006 85 168 6.0 16.0 0.00 0.85 0.30 70 1001.1
20240616192506 85 170 9.0 18.0 0.00 0.85 0.30 68 1001.1
20240616192006 84 185 9.0 14.0 0.00 0.85 0.30 70 1001.2
20240616191506 84 188 9.0 21.0 0.00 0.85 0.30 68 1001.2
20240616190505 84 176 7.0 15.0 0.00 0.85 0.30 71 1001.4
20240616190006 84 174 6.0 15.0 0.00 0.85 0.30 70 1001.5
20240616185506 84 183 5.0 17.0 0.00 0.85 0.30 73 1001.5
20240616185006 84 175 6.0 17.0 0.00 0.85 0.30 72 1001.5
20240616184505 83 179 8.0 20.0 0.00 0.85 0.30 71 1001.5
20240616184005 83 180 6.0 20.0 0.00 0.85 0.30 73 1001.6
20240616183506 83 175 7.0 14.0 0.00 0.85 0.30 72 1001.6
20240616183005 83 176 8.0 16.0 0.00 0.85 0.30 72 1001.8
20240616182505 83 172 7.0 12.0 0.00 0.85 0.30 75 1001.8
20240616182005 83 173 6.0 18.0 0.00 0.86 0.30 75 1001.8
20240616181005 82 176 7.0 16.0 0.00 0.86 0.30 76 1002.0
20240616180506 82 180 7.0 13.0 0.00 0.86 0.30 73 1001.9
20240616180006 82 172 7.0 13.0 0.00 0.86 0.30 75 1001.9
20240616175505 82 178 7.0 15.0 0.00 0.86 0.30 76 1001.8
20240616175006 81 179 8.0 17.0 0.00 0.86 0.30 76 1001.9
20240616174505 81 183 6.0 21.0 0.00 0.86 0.30 78 1002.2
20240616174005 80 170 10.0 22.0 0.00 0.86 0.30 76 1002.2
20240616172505 80 180 7.0 18.0 0.00 0.86 0.30 77 1002.1
20240616172006 80 183 8.0 18.0 0.00 0.86 0.30 76 1002.2
20240616171505 80 177 8.0 17.0 0.00 0.86 0.30 77 1002.2
20240616170506 80 175 9.0 15.0 0.00 0.86 0.30 77 1002.4
20240616170005 80 170 8.0 15.0 0.00 0.86 0.30 78 1002.5
20240616165506 79 173 6.0 13.0 0.00 0.86 0.30 79 1002.5
20240616164506 79 185 9.0 16.0 0.00 0.86 0.30 78 1002.3
20240616164005 79 166 7.0 14.0 0.00 0.86 0.30 79 1002.4
20240616163506 78 171 7.0 13.0 0.00 0.86 0.30 80 1002.5
20240616163006 78 167 7.0 16.0 0.00 0.86 0.30 79 1002.7
20240616162506 78 175 6.0 14.0 0.00 0.86 0.30 81 1002.7
20240616161005 77 173 6.0 15.0 0.00 0.86 0.30 82 1002.6
20240616160506 77 174 8.0 18.0 0.00 0.86 0.30 80 1002.6
20240616160006 77 167 8.0 15.0 0.00 0.86 0.30 81 1002.6
20240616155006 76 175 6.0 12.0 0.00 0.86 0.30 83 1002.7
20240616154505 76 172 5.0 12.0 0.00 0.86 0.30 86 1002.6
20240616154006 75 161 6.0 18.0 0.00 0.86 0.30 85 1002.5
20240616153006 74 169 5.0 9.0 0.00 0.86 0.30 88 1002.7
20240616152006 72 141 6.0 15.0 0.00 0.86 0.30 90 1002.7
20240616151506 71 171 5.0 12.0 0.00 0.86 0.30 90 1002.8
20240616151006 71 172 5.0 9.0 0.00 0.86 0.30 90 1002.8
20240616150506 70 186 5.0 14.0 0.00 0.86 0.30 90 1002.7
20240616150006 70 180 4.0 12.0 0.00 0.86 0.30 91 1002.7
20240616145505 70 189 5.0 12.0 0.00 0.86 0.30 91 1002.7
20240616145006 69 208 6.0 13.0 0.00 0.86 0.30 91 1002.8
20240616144506 69 170 5.0 12.0 0.00 0.86 0.30 91 1003.0
20240616144005 69 175 5.0 10.0 0.00 0.86 0.30 91 1003.0
20240616143506 69 176 3.0 6.0 0.00 0.86 0.30 91 1003.1
20240616143005 69 167 4.0 10.0 0.00 0.86 0.30 92 1003.0
20240616142505 69 155 4.0 8.0 0.00 0.86 0.30 92 1002.9
20240616142005 69 175 5.0 10.0 0.00 0.86 0.30 92 1003.0
20240616141506 69 170 3.0 10.0 0.00 0.86 0.30 92 1002.9
20240616141006 69 172 3.0 8.0 0.00 0.86 0.30 92 1002.9
20240616140505 69 167 3.0 7.0 0.00 0.86 0.30 92 1003.0
20240616135006 68 173 5.0 12.0 0.00 0.86 0.30 92 1003.1
20240616134506 68 171 4.0 12.0 0.00 0.86 0.30 92 1003.1
20240616134005 68 174 5.0 10.0 0.00 0.86 0.30 92 1003.0
20240616133506 68 170 6.0 12.0 0.00 0.86 0.30 92 1003.0
20240616133005 68 175 5.0 9.0 0.00 0.86 0.30 92 1003.1
20240616132506 68 177 3.0 10.0 0.00 0.86 0.30 92 1003.0
20240616131505 68 161 5.0 10.0 0.00 0.86 0.30 92 1003.0
20240616131005 68 168 5.0 12.0 0.01 0.86 0.30 92 1003.0
20240616130505 68 179 5.0 12.0 0.01 0.86 0.30 92 1003.0
20240616130005 68 176 5.0 13.0 0.01 0.86 0.30 92 1003.1
20240616125509 67 165 6.0 13.0 0.01 0.86 0.30 92 1003.0
20240616125005 67 161 5.0 13.0 0.01 0.86 0.30 92 1003.1
20240616123506 67 161 6.0 15.0 0.09 0.86 0.30 92 1003.1
20240616123006 67 183 7.0 17.0 0.12 0.86 0.30 92 1003.0
20240616122505 67 179 6.0 17.0 0.16 0.86 0.30 92 1003.0
20240616122005 67 175 6.0 12.0 0.17 0.86 0.30 93 1003.1
20240616121506 67 173 6.0 12.0 0.19 0.86 0.30 93 1003.0
20240616121005 67 170 5.0 8.0 0.19 0.85 0.29 92 1003.0
20240616120506 67 153 3.0 9.0 0.19 0.85 0.29 92 1003.0
20240616120005 67 166 5.0 10.0 0.19 0.85 0.29 93 1003.1
20240616115505 66 166 3.0 8.0 0.19 0.85 0.29 93 1003.2
20240616115005 66 158 5.0 7.0 0.19 0.85 0.29 92 1003.1
20240616114505 66 112 3.0 6.0 0.16 0.82 0.26 92 1003.5
20240616114006 66 166 2.0 6.0 0.12 0.78 0.22 92 1003.6
20240616113506 66 163 2.0 6.0 0.11 0.77 0.21 92 1003.6
20240616113005 66 166 3.0 12.0 0.09 0.74 0.18 92 1003.5
20240616112506 65 170 6.0 12.0 0.06 0.70 0.14 92 1003.6
20240616112006 65 165 5.0 9.0 0.06 0.69 0.13 92 1003.4
20240616111005 65 170 5.0 8.0 0.05 0.66 0.10 92 1003.5
20240616110506 65 168 5.0 7.0 0.05 0.66 0.10 92 1003.3
20240616110005 65 163 3.0 6.0 0.06 0.66 0.10 92 1003.3
20240616105505 65 165 3.0 7.0 0.06 0.66 0.10 92 1003.3
20240616105005 65 164 4.0 6.0 0.06 0.66 0.10 92 1003.3
20240616103506 65 167 2.0 3.0 0.07 0.66 0.10 92 1003.5
20240616103005 64 167 3.0 6.0 0.06 0.65 0.09 92 1003.8
20240616102505 64 167 3.0 5.0 0.05 0.64 0.08 92 1003.6
20240616102005 64 167 3.0 5.0 0.04 0.63 0.07 92 1003.6
20240616101505 64 167 2.0 3.0 0.04 0.63 0.07 92 1003.7
20240616101005 64 167 2.0 3.0 0.02 0.61 0.05 92 1003.9
20240616100005 64 167 3.0 5.0 0.01 0.60 0.04 92 1004.1
20240616095505 64 167 1.0 3.0 0.01 0.60 0.04 92 1003.8
20240616095005 64 167 2.0 3.0 0.01 0.60 0.04 92 1003.6
20240616094505 64 167 0.0 3.0 0.01 0.60 0.04 92 1003.5
20240616094005 64 167 1.0 3.0 0.00 0.59 0.03 92 1003.6
20240616093006 63 167 2.0 5.0 0.00 0.59 0.03 92 1003.7
20240616092505 63 167 2.0 5.0 0.00 0.59 0.03 92 1003.8
20240616092005 63 167 2.0 3.0 0.00 0.59 0.03 92 1003.8
20240616091505 63 167 2.0 3.0 0.00 0.59 0.03 92 1003.7
20240616090506 63 167 0.0 0.0 0.00 0.59 0.03 92 1003.8
20240616090006 63 167 0.0 0.0 0.00 0.59 0.03 92 1003.7
20240616085506 63 167 0.0 0.0 0.00 0.59 0.03 92 1003.9
20240616084005 63 167 0.0 0.0 0.00 0.59 0.03 92 1003.7
20240616083505 63 167 0.0 0.0 0.00 0.59 0.03 92 1003.6
20240616083005 63 167 0.0 0.0 0.00 0.59 0.03 92 1003.7
20240616082505 63 167 0.0 1.0 0.00 0.59 0.03 92 1003.6
20240616082005 63 167 0.0 0.0 0.00 0.59 0.03 92 1003.6
20240616081506 64 167 0.0 0.0 0.00 0.59 0.03 92 1003.6
20240616081005 63 167 0.0 0.0 0.00 0.59 0.03 92 1003.7
20240616080506 63 167 1.0 3.0 0.00 0.59 0.03 92 1003.9
20240616080005 63 167 1.0 3.0 0.00 0.59 0.03 92 1004.0
20240616075505 63 167 0.0 1.0 0.00 0.59 0.03 92 1004.2
20240616075006 63 167 0.0 0.0 0.00 0.59 0.03 92 1004.4
20240616074506 63 167 0.0 0.0 0.00 0.59 0.03 92 1004.5
20240616074006 63 167 0.0 3.0 0.00 0.59 0.03 92 1004.4
20240616073005 64 167 0.0 3.0 0.00 0.59 0.03 92 1004.4
20240616072505 64 167 0.0 3.0 0.00 0.59 0.03 92 1004.7
20240616072006 64 167 1.0 3.0 0.00 0.59 0.03 92 1004.5
20240616071506 64 167 0.0 0.0 0.00 0.59 0.03 92 1004.7
20240616071006 64 167 0.0 0.0 0.00 0.59 0.03 92 1004.6